Time;durP1;ratioP1;P1;durP2;ratioP2;P2;SDS_P1;SDS_P2;PMS_P1;PMS_P2;Temp;Humidity;BMP_temperature;BMP_pressure;BME280_temperature;BME280_humidity;BME280_pressure;Samples;Min_cycle;Max_cycle;Signal;HPM_P1;HPM_P2
2022/03/20 00:02:19;;;;;;;;;;;;;;;29.09;15.45;102978.84;4999866;28;810;-28
2022/03/20 00:04:44;;;;;;;;;;;;;;;29.21;15.17;102976.00;5011939;28;1233;-26
2022/03/20 00:07:11;;;;;;;;;;;;;;;28.87;15.59;102979.09;4999902;28;874;-31
2022/03/20 00:09:37;;;;;;;;;;;;;;;29.07;15.23;102969.16;4999713;28;902;-25
2022/03/20 00:12:02;;;;;;;;;;;;;;;29.31;15.21;102967.88;5010934;28;1894;-25
2022/03/20 00:14:28;;;;;;;;;;;;;;;29.58;14.94;102974.38;5002477;28;927;-29
2022/03/20 00:16:53;;;;;;;;;;;;;;;29.05;15.37;102971.13;4999216;28;723;-26
2022/03/20 00:19:19;;;;;;;;;;;;;;;28.98;15.43;102973.56;5006748;28;893;-27
2022/03/20 00:21:44;;;;;;;;;;;;;;;29.17;15.29;102964.59;4999400;28;947;-29
2022/03/20 00:24:09;;;;;;;;;;;;;;;29.47;15.04;102969.97;5001382;28;889;-28
2022/03/20 00:26:35;;;;;;;;;;;;;;;29.60;14.97;102971.53;5003902;28;860;-26
2022/03/20 00:29:00;;;;;;;;;;;;;;;29.68;14.93;102967.09;4999234;28;865;-27
2022/03/20 00:31:26;;;;;;;;;;;;;;;29.60;14.99;102963.41;4999915;28;1890;-25
2022/03/20 00:33:52;;;;;;;;;;;;;;;29.73;15.14;102969.38;5006300;28;991;-25
2022/03/20 00:36:17;;;;;;;;;;;;;;;28.85;15.51;102966.53;4999006;28;746;-28
2022/03/20 00:38:42;;;;;;;;;;;;;;;28.85;16.17;102965.69;5004803;28;959;-25
2022/03/20 00:41:07;;;;;;;;;;;;;;;29.24;15.36;102956.75;4999246;28;944;-27
2022/03/20 00:43:33;;;;;;;;;;;;;;;29.45;15.41;102961.13;4999445;28;781;-28
2022/03/20 00:45:58;;;;;;;;;;;;;;;29.65;14.92;102966.53;4998787;28;1077;-26
2022/03/20 00:48:23;;;;;;;;;;;;;;;29.78;15.07;102958.94;5004561;28;912;-27
2022/03/20 00:50:49;;;;;;;;;;;;;;;29.51;15.15;102962.41;5011087;28;826;-27
2022/03/20 00:53:16;;;;;;;;;;;;;;;29.02;15.51;102953.31;4999870;28;1972;-26
2022/03/20 00:55:41;;;;;;;;;;;;;;;28.46;16.00;102961.06;4999076;28;861;-27
2022/03/20 00:58:06;;;;;;;;;;;;;;;28.50;15.73;102965.19;4999332;28;810;-25
2022/03/20 01:00:32;;;;;;;;;;;;;;;28.48;15.81;102961.75;4998629;28;825;-29
2022/03/20 01:02:58;;;;;;;;;;;;;;;28.47;15.69;102973.59;5002753;28;821;-27
2022/03/20 01:05:23;;;;;;;;;;;;;;;28.46;15.88;102961.06;5005247;28;821;-28
2022/03/20 01:07:48;;;;;;;;;;;;;;;28.15;15.88;102958.34;4998547;28;885;-29
2022/03/20 01:10:14;;;;;;;;;;;;;;;28.03;16.11;102957.63;4999315;28;830;-28
2022/03/20 01:12:40;;;;;;;;;;;;;;;28.17;16.20;102968.06;4998955;28;1902;-26
2022/03/20 01:15:07;;;;;;;;;;;;;;;28.14;16.25;102956.66;4998290;28;869;-25
2022/03/20 01:17:32;;;;;;;;;;;;;;;28.15;16.19;102964.63;5005070;28;856;-25
2022/03/20 01:19:57;;;;;;;;;;;;;;;28.06;16.47;102965.44;5004545;28;964;-25
2022/03/20 01:22:22;;;;;;;;;;;;;;;28.69;15.99;102964.41;4998537;28;785;-27
2022/03/20 01:24:48;;;;;;;;;;;;;;;28.91;15.99;102966.97;4998431;28;898;-27
2022/03/20 01:27:13;;;;;;;;;;;;;;;28.98;15.91;102964.59;4998245;28;817;-27
2022/03/20 01:29:39;;;;;;;;;;;;;;;29.06;15.59;102954.72;5006391;28;881;-26
2022/03/20 01:32:04;;;;;;;;;;;;;;;29.17;15.71;102961.88;4998486;28;1957;-27
2022/03/20 01:34:29;;;;;;;;;;;;;;;29.01;15.83;102954.31;5006297;28;1044;-29
2022/03/20 01:36:55;;;;;;;;;;;;;;;28.56;15.93;102951.09;4998291;28;834;-28
2022/03/20 01:39:20;;;;;;;;;;;;;;;28.13;16.06;102947.66;4997976;28;774;-25
2022/03/20 01:41:47;;;;;;;;;;;;;;;28.23;16.10;102950.41;5007238;28;832;-27
2022/03/20 01:44:12;;;;;;;;;;;;;;;28.22;16.36;102944.16;4999053;28;980;-27
2022/03/20 01:46:37;;;;;;;;;;;;;;;28.89;15.70;102944.59;4997384;28;817;-25
2022/03/20 01:49:03;;;;;;;;;;;;;;;28.99;15.83;102937.34;5008137;28;948;-27
2022/03/20 01:54:12;;;;;;;;;;;;;;;29.07;15.61;102929.38;5004687;28;864;-28
2022/03/20 01:56:39;;;;;;;;;;;;;;;29.15;15.38;102944.91;4998222;28;821;-25
2022/03/20 01:59:05;;;;;;;;;;;;;;;28.56;15.82;102939.44;4996505;28;866;-25
2022/03/20 02:01:30;;;;;;;;;;;;;;;28.25;15.82;102937.59;4997594;28;789;-27
2022/03/20 02:03:55;;;;;;;;;;;;;;;28.24;16.06;102944.84;5007681;28;861;-25
2022/03/20 02:06:22;;;;;;;;;;;;;;;28.36;15.88;102944.81;4999064;28;751;-27
2022/03/20 02:08:47;;;;;;;;;;;;;;;28.21;15.85;102949.72;5004123;28;839;-26
2022/03/20 02:11:12;;;;;;;;;;;;;;;27.91;16.08;102943.31;4997904;28;1070;-27
2022/03/20 02:13:38;;;;;;;;;;;;;;;28.19;16.48;102939.03;4996384;28;847;-27
2022/03/20 02:16:03;;;;;;;;;;;;;;;27.86;16.21;102941.84;4997748;28;830;-30
2022/03/20 02:18:29;;;;;;;;;;;;;;;28.53;16.24;102940.53;5000038;28;955;-27
2022/03/20 02:20:57;;;;;;;;;;;;;;;28.53;16.00;102945.13;4998877;28;865;-26
2022/03/20 02:23:22;;;;;;;;;;;;;;;29.29;15.60;102943.63;4997379;28;826;-27
2022/03/20 02:25:48;;;;;;;;;;;;;;;29.07;15.59;102942.06;4997559;28;890;-27
2022/03/20 02:28:13;;;;;;;;;;;;;;;28.60;16.36;102946.25;4997393;28;789;-30
2022/03/20 02:30:39;;;;;;;;;;;;;;;28.89;15.76;102953.59;4997186;28;797;-29
2022/03/20 02:33:04;;;;;;;;;;;;;;;29.77;15.00;102953.66;5007791;28;1910;-28
2022/03/20 02:35:31;;;;;;;;;;;;;;;29.08;15.58;102951.88;5002135;28;1042;-25
2022/03/20 02:37:57;;;;;;;;;;;;;;;28.70;16.15;102957.97;4996079;28;787;-28
2022/03/20 02:40:22;;;;;;;;;;;;;;;29.76;15.08;102966.34;4997485;28;758;-31
2022/03/20 02:42:51;;;;;;;;;;;;;;;30.18;14.71;102967.78;4997179;28;846;-29
2022/03/20 02:45:23;;;;;;;;;;;;;;;29.73;14.76;102976.66;5002869;28;846;-27
2022/03/20 02:47:49;;;;;;;;;;;;;;;30.08;14.71;102979.69;4997851;28;849;-26
2022/03/20 02:50:17;;;;;;;;;;;;;;;29.34;15.46;102975.72;5016323;28;885;-26
2022/03/20 02:52:49;;;;;;;;;;;;;;;30.16;14.65;102967.06;5015994;28;1965;-25
2022/03/20 02:55:15;;;;;;;;;;;;;;;29.37;15.37;102971.84;5015799;28;872;-25
2022/03/20 02:57:40;;;;;;;;;;;;;;;29.16;15.77;102964.75;5011779;28;847;-28
2022/03/20 03:00:06;;;;;;;;;;;;;;;29.22;15.66;102958.72;5002235;28;790;-26
2022/03/20 03:02:45;;;;;;;;;;;;;;;29.56;15.38;102966.38;4997087;28;743;-26
2022/03/20 03:05:15;;;;;;;;;;;;;;;29.63;15.33;102960.44;4997174;28;878;-27
2022/03/20 03:13:11;;;;;;;;;;;;;;;30.85;14.20;102967.69;4996647;28;1898;-26
2022/03/20 03:15:37;;;;;;;;;;;;;;;31.08;13.94;102973.53;5009447;28;834;-26
2022/03/20 03:18:02;;;;;;;;;;;;;;;31.07;13.83;102971.81;5011510;28;913;-27
2022/03/20 03:20:27;;;;;;;;;;;;;;;30.76;14.21;102967.59;4997018;28;766;-26
2022/03/20 03:22:53;;;;;;;;;;;;;;;30.57;14.09;102978.59;4998016;28;877;-26
2022/03/20 03:25:18;;;;;;;;;;;;;;;29.96;14.72;102981.72;5004838;28;795;-27
2022/03/20 03:27:43;;;;;;;;;;;;;;;29.48;15.38;102978.97;4996506;28;807;-30
2022/03/20 03:30:09;;;;;;;;;;;;;;;29.94;14.89;102984.59;4996346;28;810;-28
2022/03/20 03:32:34;;;;;;;;;;;;;;;29.73;15.18;102982.94;4995164;28;1969;-25
2022/03/20 03:37:43;;;;;;;;;;;;;;;30.09;14.84;102997.69;5008524;28;718;-26
2022/03/20 03:40:09;;;;;;;;;;;;;;;29.92;14.99;102986.59;4996479;28;1488;-27
2022/03/20 03:42:36;;;;;;;;;;;;;;;29.93;14.94;102991.88;4996828;28;857;-25
2022/03/20 03:45:02;;;;;;;;;;;;;;;30.24;14.70;103001.66;4996481;28;774;-29
2022/03/20 03:47:28;;;;;;;;;;;;;;;30.09;14.67;102994.97;4996484;28;826;-29
2022/03/20 03:49:54;;;;;;;;;;;;;;;30.12;14.69;102992.81;5009113;28;1003;-29
2022/03/20 03:52:19;;;;;;;;;;;;;;;30.35;14.50;102983.44;4996019;28;1906;-26
2022/03/20 03:54:44;;;;;;;;;;;;;;;29.95;15.05;102986.28;4996627;28;822;-28
2022/03/20 03:57:10;;;;;;;;;;;;;;;30.22;14.84;102991.94;4996063;28;885;-27
2022/03/20 03:59:35;;;;;;;;;;;;;;;30.41;14.52;102986.41;4996316;28;889;-26
2022/03/20 04:02:01;;;;;;;;;;;;;;;30.65;14.44;102987.69;5004931;28;773;-30
2022/03/20 04:04:26;;;;;;;;;;;;;;;30.52;14.42;102984.50;5006767;28;1430;-30
2022/03/20 04:06:52;;;;;;;;;;;;;;;30.16;14.67;102988.78;4996316;28;751;-27
2022/03/20 04:09:17;;;;;;;;;;;;;;;30.53;14.33;102984.34;4996745;28;894;-26
2022/03/20 04:11:42;;;;;;;;;;;;;;;30.83;13.80;102980.63;4996123;28;1949;-29
2022/03/20 04:14:08;;;;;;;;;;;;;;;30.87;14.09;102992.88;5000052;28;786;-27
2022/03/20 04:16:33;;;;;;;;;;;;;;;31.20;13.97;102981.47;5005151;28;893;-27
2022/03/20 04:18:59;;;;;;;;;;;;;;;27.51;9.83;102976.34;5006054;28;841;-24
2022/03/20 04:21:24;;;;;;;;;;;;;;;25.31;10.27;102978.41;5018861;28;837;-26
2022/03/20 04:23:49;;;;;;;;;;;;;;;23.93;10.73;102975.66;5018987;28;833;-27
2022/03/20 04:26:16;;;;;;;;;;;;;;;25.34;13.22;102974.59;5018631;28;801;-25
2022/03/20 04:28:44;;;;;;;;;;;;;;;25.66;14.57;102965.91;5011944;28;797;-24
2022/03/20 04:31:10;;;;;;;;;;;;;;;25.66;14.68;102970.44;4999624;28;853;-26
2022/03/20 04:33:35;;;;;;;;;;;;;;;25.61;14.91;102960.00;5004497;28;1961;-26
2022/03/20 04:36:01;;;;;;;;;;;;;;;25.74;15.19;102959.09;5018061;28;1053;-25
2022/03/20 04:38:27;;;;;;;;;;;;;;;25.62;15.04;102958.16;5018339;28;853;-28
2022/03/20 04:40:53;;;;;;;;;;;;;;;25.58;15.10;102972.84;5011347;28;860;-27
2022/03/20 04:43:18;;;;;;;;;;;;;;;25.52;13.41;102983.13;4999169;28;822;-26
2022/03/20 04:45:44;;;;;;;;;;;;;;;25.58;10.86;102978.22;4999147;28;831;-26
2022/03/20 04:59:05;;;;;;;;;;;;;;;25.62;12.75;102985.97;4998713;28;648;-25
2022/03/20 05:01:30;;;;;;;;;;;;;;;25.54;13.56;102983.03;4998972;28;829;-27
2022/03/20 05:03:55;;;;;;;;;;;;;;;25.80;13.49;102988.25;5003996;28;837;-26
2022/03/20 05:06:21;;;;;;;;;;;;;;;25.64;14.02;102993.97;5006899;28;772;-26
2022/03/20 05:08:46;;;;;;;;;;;;;;;25.67;14.07;102985.66;4999113;28;885;-28
2022/03/20 05:13:55;;;;;;;;;;;;;;;25.59;14.45;102991.59;4998499;28;803;-27
2022/03/20 05:16:20;;;;;;;;;;;;;;;26.04;14.17;102998.09;4998986;28;862;-27
2022/03/20 05:18:45;;;;;;;;;;;;;;;27.33;13.32;102986.03;5003524;28;913;-25
2022/03/20 05:21:11;;;;;;;;;;;;;;;26.07;14.20;103005.09;4999266;28;1226;-24
2022/03/20 05:23:36;;;;;;;;;;;;;;;25.91;14.36;103008.97;4998116;28;779;-25
2022/03/20 05:26:01;;;;;;;;;;;;;;;26.20;14.13;102997.75;4998204;28;778;-28
2022/03/20 05:28:27;;;;;;;;;;;;;;;25.89;14.59;103006.41;4998457;28;826;-24
2022/03/20 05:30:52;;;;;;;;;;;;;;;26.00;14.63;103002.88;5001659;28;928;-28
2022/03/20 05:33:17;;;;;;;;;;;;;;;26.67;14.50;102991.38;5004599;28;1903;-25
2022/03/20 05:35:45;;;;;;;;;;;;;;;26.06;14.86;102998.81;5016968;28;1038;-25
2022/03/20 05:38:10;;;;;;;;;;;;;;;27.17;13.74;102999.97;5017276;28;858;-27
2022/03/20 05:40:38;;;;;;;;;;;;;;;26.49;14.63;103005.34;5017018;28;861;-25
2022/03/20 05:43:04;;;;;;;;;;;;;;;26.12;15.08;102995.66;5016867;28;1250;-25
2022/03/20 05:45:29;;;;;;;;;;;;;;;26.11;14.91;102996.63;5005048;28;857;-26
2022/03/20 05:47:54;;;;;;;;;;;;;;;26.20;15.11;103003.13;4998546;28;849;-24
2022/03/20 05:50:19;;;;;;;;;;;;;;;26.01;15.00;103011.81;5012678;28;739;-24
2022/03/20 05:52:45;;;;;;;;;;;;;;;26.51;14.65;103007.94;5016668;28;1957;-26
2022/03/20 05:55:10;;;;;;;;;;;;;;;26.89;14.41;103008.50;5016862;28;829;-27
2022/03/20 06:00:23;;;;;;;;;;;;;;;26.12;15.15;103006.44;4997561;28;719;-27
2022/03/20 06:02:48;;;;;;;;;;;;;;;26.84;14.53;103016.97;4997719;28;885;-25
2022/03/20 06:05:13;;;;;;;;;;;;;;;27.70;13.89;103017.19;5003889;28;878;-25
2022/03/20 06:07:43;;;;;;;;;;;;;;;27.72;13.88;103015.22;4998156;28;806;-29
2022/03/20 06:10:11;;;;;;;;;;;;;;;27.28;13.85;103018.00;5006051;28;865;-26
2022/03/20 06:12:36;;;;;;;;;;;;;;;27.72;13.86;103020.63;4997795;28;1903;-25
2022/03/20 06:15:02;;;;;;;;;;;;;;;27.62;13.79;103024.09;4997658;28;893;-28
2022/03/20 06:17:27;;;;;;;;;;;;;;;27.53;14.11;103024.88;4997524;28;810;-24
2022/03/20 06:19:52;;;;;;;;;;;;;;;27.20;13.91;103027.59;5003947;28;984;-25
2022/03/20 06:22:18;;;;;;;;;;;;;;;27.58;14.21;103025.34;4998906;28;827;-28
2022/03/20 06:24:43;;;;;;;;;;;;;;;27.34;14.25;103025.59;5002504;28;738;-27
2022/03/20 06:27:09;;;;;;;;;;;;;;;27.18;14.34;103026.84;4997387;28;818;-25
2022/03/20 06:29:34;;;;;;;;;;;;;;;27.81;14.22;103029.81;4997619;28;857;-25
2022/03/20 06:31:59;;;;;;;;;;;;;;;26.43;14.85;103032.84;4996912;28;2052;-26
2022/03/20 06:34:24;;;;;;;;;;;;;;;26.66;15.10;103035.53;5009127;28;1021;-27
2022/03/20 06:36:50;;;;;;;;;;;;;;;26.69;15.04;103031.75;5003157;28;901;-27
2022/03/20 06:39:15;;;;;;;;;;;;;;;26.76;14.89;103025.69;4997714;28;834;-25
2022/03/20 06:41:40;;;;;;;;;;;;;;;26.92;14.66;103032.56;4996870;28;929;-25
2022/03/20 06:44:06;;;;;;;;;;;;;;;26.06;15.65;103031.19;4997418;28;924;-26
2022/03/20 06:46:33;;;;;;;;;;;;;;;26.85;15.09;103023.22;4997481;28;762;-27
2022/03/20 06:48:58;;;;;;;;;;;;;;;27.08;14.86;103021.38;5010934;28;828;-25
2022/03/20 06:51:24;;;;;;;;;;;;;;;26.48;15.37;103024.38;4997989;28;1961;-26
2022/03/20 06:53:50;;;;;;;;;;;;;;;27.49;14.50;103029.69;4997332;28;842;-26
2022/03/20 06:56:15;;;;;;;;;;;;;;;26.95;14.75;103031.44;4996705;28;1220;-25
2022/03/20 06:58:41;;;;;;;;;;;;;;;26.91;15.04;103028.13;4997442;28;842;-26
2022/03/20 07:01:08;;;;;;;;;;;;;;;26.62;15.36;103037.63;5003398;28;908;-27
2022/03/20 07:03:34;;;;;;;;;;;;;;;27.22;14.46;103033.75;5000114;28;913;-27
2022/03/20 07:05:59;;;;;;;;;;;;;;;26.76;15.02;103035.63;5015904;28;1474;-25
2022/03/20 07:08:24;;;;;;;;;;;;;;;26.92;15.12;103037.97;5015650;28;872;-27
2022/03/20 07:10:49;;;;;;;;;;;;;;;27.05;15.04;103039.66;5015552;28;829;-28
2022/03/20 07:15:59;;;;;;;;;;;;;;;27.39;14.85;103040.41;4998528;28;794;-26
2022/03/20 07:18:24;;;;;;;;;;;;;;;26.69;15.06;103038.00;5001245;28;849;-25
2022/03/20 07:20:49;;;;;;;;;;;;;;;26.43;15.47;103035.53;4998872;28;786;-26
2022/03/20 07:23:15;;;;;;;;;;;;;;;27.12;14.98;103030.94;4996968;28;787;-26
2022/03/20 07:31:08;;;;;;;;;;;;;;;28.21;14.13;103039.84;4996772;28;612;-27
2022/03/20 07:33:33;;;;;;;;;;;;;;;28.44;13.61;103034.31;4997152;28;1910;-27
2022/03/20 07:35:59;;;;;;;;;;;;;;;28.23;13.88;103027.03;5015397;28;1069;-26
2022/03/20 07:38:24;;;;;;;;;;;;;;;28.60;13.55;103027.50;5013140;28;830;-25
2022/03/20 07:40:50;;;;;;;;;;;;;;;28.52;13.53;103030.91;5003078;28;874;-27
2022/03/20 07:43:16;;;;;;;;;;;;;;;28.40;14.12;103016.59;4996166;28;1030;-28
2022/03/20 07:45:42;;;;;;;;;;;;;;;28.46;13.62;103034.16;5003482;28;1053;-27
2022/03/20 07:48:08;;;;;;;;;;;;;;;28.27;13.76;103030.34;4998894;28;868;-26
2022/03/20 07:50:34;;;;;;;;;;;;;;;27.21;14.90;103025.75;5018780;28;962;-25
2022/03/20 07:53:00;;;;;;;;;;;;;;;28.07;14.37;103026.69;5016170;28;1997;-24
2022/03/20 07:55:27;;;;;;;;;;;;;;;28.08;14.30;103020.25;5019299;28;758;-27
2022/03/20 07:57:53;;;;;;;;;;;;;;;28.64;13.83;103022.66;5019168;28;838;-26
2022/03/20 08:00:19;;;;;;;;;;;;;;;28.44;13.83;103019.91;5019379;28;853;-25
2022/03/20 08:02:45;;;;;;;;;;;;;;;28.15;14.16;103024.16;5018098;28;940;-27
2022/03/20 08:05:10;;;;;;;;;;;;;;;28.02;13.74;103007.28;5013937;28;801;-25
2022/03/20 08:07:38;;;;;;;;;;;;;;;27.92;14.46;103010.81;5000300;28;999;-27
2022/03/20 08:10:05;;;;;;;;;;;;;;;28.04;14.19;103011.59;4999965;28;746;-27
2022/03/20 08:12:30;;;;;;;;;;;;;;;28.26;13.86;103004.25;5000237;28;1890;-24
2022/03/20 08:14:56;;;;;;;;;;;;;;;28.38;13.69;103015.03;5000659;28;834;-28
2022/03/20 08:17:21;;;;;;;;;;;;;;;28.28;13.76;103002.28;5006915;28;889;-24
2022/03/20 08:19:46;;;;;;;;;;;;;;;28.02;13.98;103009.97;5009928;28;883;-26
2022/03/20 08:22:11;;;;;;;;;;;;;;;27.94;13.67;103008.81;4999918;28;953;-26
2022/03/20 08:24:38;;;;;;;;;;;;;;;27.82;13.86;103018.84;4999434;28;913;-25
2022/03/20 08:27:04;;;;;;;;;;;;;;;27.74;13.95;103015.97;5000167;28;814;-27
2022/03/20 08:29:29;;;;;;;;;;;;;;;27.64;13.96;103002.34;4999808;28;771;-24
2022/03/20 08:31:55;;;;;;;;;;;;;;;27.59;14.22;103016.22;5013875;28;1890;-26
2022/03/20 08:34:21;;;;;;;;;;;;;;;27.55;14.00;103016.63;5004340;28;1141;-25
2022/03/20 08:36:46;;;;;;;;;;;;;;;27.51;14.10;103013.31;4999726;28;921;-30
2022/03/20 08:39:11;;;;;;;;;;;;;;;27.41;13.77;103013.25;4999617;28;853;-25
2022/03/20 08:41:37;;;;;;;;;;;;;;;27.33;14.19;103015.75;4999915;28;876;-26
2022/03/20 08:44:02;;;;;;;;;;;;;;;27.32;14.12;103027.56;5008377;28;897;-25
2022/03/20 08:46:28;;;;;;;;;;;;;;;27.29;14.01;103009.75;4999461;28;799;-24
2022/03/20 08:48:53;;;;;;;;;;;;;;;27.27;14.17;103011.72;5009370;28;864;-26
2022/03/20 08:51:18;;;;;;;;;;;;;;;27.23;14.16;103012.97;4999610;28;754;-24
2022/03/20 08:53:44;;;;;;;;;;;;;;;27.17;14.05;103024.28;4999303;28;1910;-24
2022/03/20 08:56:09;;;;;;;;;;;;;;;27.13;14.10;103024.53;5004572;28;862;-23
2022/03/20 08:58:35;;;;;;;;;;;;;;;27.67;13.58;103026.41;5000066;28;1053;-27
2022/03/20 09:01:00;;;;;;;;;;;;;;;28.26;13.69;103019.66;5012333;28;1080;-24
2022/03/20 09:03:25;;;;;;;;;;;;;;;27.16;14.37;103014.47;5007302;28;1017;-26
2022/03/20 09:05:51;;;;;;;;;;;;;;;26.91;15.00;102995.72;5011019;28;1306;-25
2022/03/20 09:08:16;;;;;;;;;;;;;;;26.92;15.36;103004.69;5011110;28;1444;-26
2022/03/20 09:10:41;;;;;;;;;;;;;;;27.32;14.69;103004.09;5001683;28;802;-24
2022/03/20 09:13:07;;;;;;;;;;;;;;;27.61;14.83;103005.31;4999244;28;1963;-25
2022/03/20 09:15:32;;;;;;;;;;;;;;;28.03;14.58;103000.91;4999314;28;877;-25
2022/03/20 09:20:42;;;;;;;;;;;;;;;28.32;14.49;103002.88;5012788;28;854;-26
2022/03/20 09:23:07;;;;;;;;;;;;;;;28.80;14.08;102995.03;5005853;28;754;-28
2022/03/20 09:25:33;;;;;;;;;;;;;;;28.93;13.56;103001.06;4998778;28;886;-26
2022/03/20 09:27:59;;;;;;;;;;;;;;;28.93;13.89;102992.91;4998482;28;889;-27
2022/03/20 09:30:24;;;;;;;;;;;;;;;28.88;13.77;102994.34;4998736;28;822;-29
2022/03/20 09:32:49;;;;;;;;;;;;;;;28.80;13.95;102979.66;4998340;28;1969;-29
2022/03/20 09:35:15;;;;;;;;;;;;;;;28.53;13.88;102970.31;5010897;28;1085;-25
2022/03/20 09:37:40;;;;;;;;;;;;;;;28.23;13.86;102966.63;4999039;28;866;-25
2022/03/20 09:40:06;;;;;;;;;;;;;;;28.10;13.85;102958.75;4998516;28;798;-25
2022/03/20 09:42:31;;;;;;;;;;;;;;;28.01;13.96;102960.41;4998862;28;723;-27
2022/03/20 09:44:57;;;;;;;;;;;;;;;27.94;13.81;102968.25;4998295;28;1209;-26
2022/03/20 09:47:25;;;;;;;;;;;;;;;27.90;13.97;102966.78;5008486;28;789;-28
2022/03/20 09:49:51;;;;;;;;;;;;;;;27.81;13.96;102976.56;5005096;28;841;-24
2022/03/20 09:52:19;;;;;;;;;;;;;;;27.74;13.80;102960.00;4996982;28;1963;-28
2022/03/20 09:54:44;;;;;;;;;;;;;;;27.69;14.07;102961.41;4998119;28;753;-28
2022/03/20 09:57:10;;;;;;;;;;;;;;;27.65;14.07;102960.78;4998609;28;838;-28
2022/03/20 09:59:36;;;;;;;;;;;;;;;27.62;14.22;102963.75;5004314;28;869;-26
2022/03/20 10:02:06;;;;;;;;;;;;;;;27.57;14.03;102971.41;4998494;28;801;-29
2022/03/20 10:04:34;;;;;;;;;;;;;;;27.51;14.10;102965.53;5005191;28;885;-24
2022/03/20 10:06:59;;;;;;;;;;;;;;;28.14;13.57;102967.47;4998603;28;808;-24
2022/03/20 10:09:24;;;;;;;;;;;;;;;28.69;13.32;102964.41;4997538;28;854;-27
2022/03/20 10:11:51;;;;;;;;;;;;;;;28.59;13.13;102964.34;5000487;28;1959;-25
2022/03/20 10:14:17;;;;;;;;;;;;;;;27.51;14.20;102979.06;5003867;28;919;-25
2022/03/20 10:17:02;;;;;;;;;;;;;;;28.05;13.78;102969.13;4997405;28;889;-28
2022/03/20 10:19:28;;;;;;;;;;;;;;;27.50;13.89;102968.38;5002415;28;1628;-26
2022/03/20 10:21:54;;;;;;;;;;;;;;;27.34;14.66;102961.56;5016709;28;810;-30
2022/03/20 10:24:20;;;;;;;;;;;;;;;26.83;14.92;102953.16;5015138;28;902;-25
2022/03/20 10:26:47;;;;;;;;;;;;;;;26.76;15.22;102954.63;5008297;28;1192;-27
2022/03/20 10:29:13;;;;;;;;;;;;;;;27.07;14.96;102953.97;5015238;28;1180;-26
2022/03/20 10:31:38;;;;;;;;;;;;;;;27.10;14.96;102941.06;5016229;28;1890;-26
2022/03/20 10:34:04;;;;;;;;;;;;;;;26.80;15.37;102939.03;5007305;28;1244;-27
2022/03/20 10:36:29;;;;;;;;;;;;;;;26.99;14.82;102936.50;4997724;28;762;-26
2022/03/20 10:38:55;;;;;;;;;;;;;;;26.76;15.42;102925.81;5005437;28;901;-27
2022/03/20 10:41:27;;;;;;;;;;;;;;;27.26;14.66;102937.91;4997744;28;994;-25
2022/03/20 10:43:53;;;;;;;;;;;;;;;26.62;15.10;102923.41;4997901;28;806;-25
2022/03/20 10:46:23;;;;;;;;;;;;;;;26.54;15.34;102926.72;4996675;28;829;-26
2022/03/20 10:48:49;;;;;;;;;;;;;;;26.42;15.79;102931.28;5004565;28;826;-26
2022/03/20 10:51:15;;;;;;;;;;;;;;;26.21;15.93;102923.06;5003602;28;889;-27
2022/03/20 10:53:59;;;;;;;;;;;;;;;26.14;15.68;102915.44;4995625;28;1911;-27
2022/03/20 10:56:25;;;;;;;;;;;;;;;26.07;15.78;102914.25;4997460;28;771;-27
2022/03/20 10:58:50;;;;;;;;;;;;;;;25.88;15.83;102921.09;4997493;28;952;-25
2022/03/20 11:01:17;;;;;;;;;;;;;;;25.87;15.70;102911.31;4997075;28;841;-27
2022/03/20 11:03:42;;;;;;;;;;;;;;;25.82;15.82;102908.13;5005666;28;873;-25
2022/03/20 11:06:08;;;;;;;;;;;;;;;25.83;15.89;102917.03;5001719;28;888;-24
2022/03/20 11:08:33;;;;;;;;;;;;;;;25.77;15.92;102921.09;4996898;28;1430;-24
2022/03/20 11:10:58;;;;;;;;;;;;;;;25.73;15.84;102919.59;4997208;28;802;-25
2022/03/20 11:13:24;;;;;;;;;;;;;;;25.69;16.05;102905.53;4996092;28;1894;-26
2022/03/20 11:15:49;;;;;;;;;;;;;;;25.73;16.06;102896.22;4999417;28;837;-25
2022/03/20 11:18:15;;;;;;;;;;;;;;;26.68;15.27;102912.09;5003416;28;915;-26
2022/03/20 11:20:46;;;;;;;;;;;;;;;26.58;15.34;102912.00;5015952;28;910;-24
2022/03/20 11:23:12;;;;;;;;;;;;;;;26.59;15.19;102900.19;5018534;28;803;-26
2022/03/20 11:25:38;;;;;;;;;;;;;;;26.47;15.84;102902.09;5020027;28;810;-26
2022/03/20 11:28:03;;;;;;;;;;;;;;;26.44;15.59;102899.66;5013666;28;1132;-27
2022/03/20 11:30:35;;;;;;;;;;;;;;;26.73;15.57;102904.47;4999935;28;933;-25
2022/03/20 11:33:01;;;;;;;;;;;;;;;26.66;15.55;102903.25;5013312;28;1967;-25
2022/03/20 11:35:28;;;;;;;;;;;;;;;26.98;15.59;102913.19;5005530;28;1094;-26
2022/03/20 11:37:55;;;;;;;;;;;;;;;27.23;15.54;102921.09;5001282;28;787;-25
2022/03/20 11:40:22;;;;;;;;;;;;;;;27.45;15.49;102916.53;5001297;28;794;-28
2022/03/20 11:42:47;;;;;;;;;;;;;;;27.72;15.30;102912.47;5006930;28;873;-26
2022/03/20 11:45:14;;;;;;;;;;;;;;;28.51;14.55;102920.88;5000687;28;1520;-26
2022/03/20 11:47:40;;;;;;;;;;;;;;;28.57;14.24;102903.22;5010421;28;1089;-26
2022/03/20 11:50:13;;;;;;;;;;;;;;;28.57;14.51;102908.63;5019667;28;967;-28
2022/03/20 11:52:46;;;;;;;;;;;;;;;27.50;15.47;102912.47;5012882;28;1927;-26
2022/03/20 11:55:24;;;;;;;;;;;;;;;27.31;15.57;102913.19;5018891;28;898;-27
2022/03/20 11:57:49;;;;;;;;;;;;;;;27.97;15.12;102908.47;5000192;28;889;-27
2022/03/20 12:00:18;;;;;;;;;;;;;;;27.80;15.22;102907.25;4999291;28;1295;-25
2022/03/20 12:02:48;;;;;;;;;;;;;;;28.42;15.06;102908.19;5000142;28;856;-26
2022/03/20 12:05:13;;;;;;;;;;;;;;;28.93;14.31;102914.34;5015010;28;886;-27
2022/03/20 12:07:47;;;;;;;;;;;;;;;28.99;14.35;102893.13;5017232;28;900;-26
2022/03/20 12:10:22;;;;;;;;;;;;;;;28.75;14.59;102894.38;5000321;28;848;-28
2022/03/20 12:12:47;;;;;;;;;;;;;;;28.11;15.11;102893.69;4998761;28;1894;-25
2022/03/20 12:15:13;;;;;;;;;;;;;;;27.98;15.43;102879.53;5000263;28;794;-26
2022/03/20 12:17:59;;;;;;;;;;;;;;;27.91;15.63;102884.66;5000625;28;904;-28
2022/03/20 12:20:43;;;;;;;;;;;;;;;28.24;15.52;102866.38;5011762;28;959;-26
2022/03/20 12:23:26;;;;;;;;;;;;;;;29.21;14.21;102883.84;5005144;28;830;-25
2022/03/20 12:25:52;;;;;;;;;;;;;;;29.33;14.12;102884.53;5000218;28;841;-26
2022/03/20 12:28:29;;;;;;;;;;;;;;;29.29;14.30;102883.13;4999895;28;897;-25
2022/03/20 12:30:55;;;;;;;;;;;;;;;29.19;14.29;102877.72;5000041;28;762;-29
2022/03/20 12:33:24;;;;;;;;;;;;;;;29.13;14.44;102887.28;5008004;28;1960;-27
2022/03/20 12:35:49;;;;;;;;;;;;;;;29.07;14.60;102877.88;5002003;28;991;-30
2022/03/20 12:38:34;;;;;;;;;;;;;;;29.02;14.51;102879.31;4999741;28;821;-27
2022/03/20 12:41:13;;;;;;;;;;;;;;;28.96;14.55;102886.97;4999925;28;921;-25
2022/03/20 12:43:39;;;;;;;;;;;;;;;28.95;14.87;102879.84;5013149;28;771;-26
2022/03/20 12:46:05;;;;;;;;;;;;;;;28.92;14.76;102876.56;5018058;28;784;-27
2022/03/20 12:48:33;;;;;;;;;;;;;;;28.94;14.69;102867.31;5005495;28;841;-27
2022/03/20 12:50:59;;;;;;;;;;;;;;;28.87;14.72;102871.59;4999560;28;837;-25
2022/03/20 12:53:24;;;;;;;;;;;;;;;28.92;14.84;102863.91;4999145;28;1969;-26
2022/03/20 12:55:56;;;;;;;;;;;;;;;28.75;14.37;102857.34;5005163;28;1550;-26
2022/03/20 12:58:22;;;;;;;;;;;;;;;28.58;14.25;102850.75;5011739;28;887;-26
2022/03/20 13:00:47;;;;;;;;;;;;;;;28.44;14.03;102838.53;4998995;28;1035;-25
2022/03/20 13:03:16;;;;;;;;;;;;;;;28.41;13.95;102855.06;4999983;28;946;-27
2022/03/20 13:05:47;;;;;;;;;;;;;;;28.32;14.00;102851.28;5011866;28;887;-27
2022/03/20 13:08:20;;;;;;;;;;;;;;;28.26;14.01;102849.16;5017761;28;845;-27
2022/03/20 13:10:46;;;;;;;;;;;;;;;28.17;14.36;102838.16;5017464;28;802;-24
2022/03/20 13:13:16;;;;;;;;;;;;;;;28.12;14.06;102837.72;5003008;28;1902;-26
2022/03/20 13:15:42;;;;;;;;;;;;;;;28.08;14.29;102828.16;4999458;28;771;-25
2022/03/20 13:18:07;;;;;;;;;;;;;;;28.40;13.92;102823.53;5003239;28;825;-27
2022/03/20 13:20:36;;;;;;;;;;;;;;;28.71;13.79;102824.25;5004671;28;814;-29
2022/03/20 13:23:06;;;;;;;;;;;;;;;29.09;13.43;102810.81;4999081;28;1413;-25
2022/03/20 13:25:31;;;;;;;;;;;;;;;27.39;14.88;102818.78;5005339;28;945;-26
2022/03/20 13:27:56;;;;;;;;;;;;;;;28.28;14.25;102822.81;4998716;28;786;-26
2022/03/20 13:30:31;;;;;;;;;;;;;;;28.44;13.72;102817.72;4999090;28;952;-26